Blue Bay — V2CE6 — position and weather

sailwx.info

Track history (hours):
 
Tides and Currents Weather Stations Pressure Air Temp Water Temp Dewpoint Dewpoint Depression Visibility Wind Speed Wind Dir Waves Ship Positions

Blue Bay

Last reported at 2015-Jul-04 18:27 UTC. Time now 2015-Jul-05 23:15 UTC.
Position N 43°25' W 002°43'.

Length 89 m; draft 4.8 m.

Type: Cargo ship. MMSI: 304519000.

Date/timePositionNaut miles runAvg speedWind from/ knotsBaromVisibWave heightAir tempDewpointWater temp
2015-Jul-04 18:27N 43°25' W 002°43'0 0.0
2015-Jul-04 17:12N 43°25' W 002°43'0 0.0
2015-Jul-04 16:33N 43°25' W 002°43'154 7.5
2015-Jul-03 20:07N 43°44' W 006°14'6 9.9
2015-Jul-03 19:33N 43°44' W 006°21'  
2015-Jun-30 19:06N 47°11' W 007°07'510.0
2015-Jun-30 18:33N 47°15' W 007°03'208 9.3
2015-Jun-29 20:05N 49°46' W 003°26'8 9.7
2015-Jun-29 19:12N 49°51' W 003°16'6 8.9
2015-Jun-29 18:33N 49°54' W 003°08'9 8.4
2015-Jun-29 17:29N 49°59' W 002°56'8 8.4
2015-Jun-29 16:33N 50°01' W 002°44'9 8.6
2015-Jun-29 15:33N 50°03' W 002°31'9 9.4
2015-Jun-29 14:33N 50°06' W 002°17'1110.7
2015-Jun-29 13:33N 50°09' W 002°01'1211.9
2015-Jun-29 12:33N 50°13' W 001°44'1312.4
2015-Jun-29 11:29N 50°17' W 001°24'1212.3
2015-Jun-29 10:30N 50°19' W 001°05'49 9.1
2015-Jun-29 05:06N 50°33' E 000°09'5 9.0
2015-Jun-29 04:33N 50°35' E 000°16'9 9.6
2015-Jun-29 03:33N 50°37' E 000°31'1010.4
2015-Jun-29 02:33N 50°43' E 000°45'1010.3
2015-Jun-29 01:33N 50°48' E 000°58'19 9.2
2015-Jun-28 23:27N 51°01' E 001°22'7 7.8
2015-Jun-28 22:33N 51°06' E 001°30'7 6.7
2015-Jun-28 21:33N 51°10' E 001°38'7 7.2
2015-Jun-28 20:33N 51°15' E 001°47'9 8.7
2015-Jun-28 19:34N 51°22' E 001°55'1010.1
2015-Jun-28 18:33N 51°30' E 002°05'1110.9
2015-Jun-28 17:33N 51°38' E 002°16'1111.0
2015-Jun-28 16:33N 51°47' E 002°27'2310.0
2015-Jun-28 14:14N 52°04' E 002°52'6 9.0
2015-Jun-28 13:33N 52°09' E 002°58'8 8.5
2015-Jun-28 12:33N 52°16' E 003°06'8 8.3
2015-Jun-28 11:33N 52°23' E 003°14'8 8.2
2015-Jun-28 10:32N 52°30' E 003°22'8 8.7
2015-Jun-28 09:34N 52°37' E 003°30'10 9.5
2015-Jun-28 08:33N 52°44' E 003°40'1010.0
2015-Jun-28 07:33N 52°51' E 003°52'1010.3
2015-Jun-28 06:33N 52°58' E 004°04'1010.2
2015-Jun-28 05:33N 53°06' E 004°16'10 9.6
2015-Jun-28 04:34N 53°12' E 004°27'9 9.2
2015-Jun-28 03:33N 53°21' E 004°33'8 8.5
2015-Jun-28 02:33N 53°28' E 004°40'9 8.6
2015-Jun-28 01:33N 53°31' E 004°53'9 8.8
2015-Jun-28 00:34N 53°34' E 005°07'10 9.6
2015-Jun-27 23:33N 53°38' E 005°22'1010.3
2015-Jun-27 22:34N 53°41' E 005°39'1110.5
2015-Jun-27 21:34N 53°44' E 005°56'1010.4
2015-Jun-27 20:33N 53°47' E 006°13'10 9.9
2015-Jun-27 19:33N 53°50' E 006°29'30 8.6
2015-Jun-27 16:03N 53°57' E 007°19'28 7.9
2015-Jun-27 12:33N 53°50' E 008°04'1110.8
2015-Jun-27 11:33N 53°43' E 008°18'1211.6
2015-Jun-27 10:33N 53°35' E 008°32'9 9.4
2015-Jun-27 09:33N 53°26' E 008°30'4 4.2
2015-Jun-27 08:33N 53°21' E 008°30'0 0.0
2015-Jun-27 07:33N 53°21' E 008°30'0 0.0
2015-Jun-27 06:33N 53°21' E 008°30'0 0.0
2015-Jun-27 05:30N 53°21' E 008°30'0 0.0
2015-Jun-27 04:33N 53°21' E 008°30'0 0.0
2015-Jun-27 03:33N 53°21' E 008°30'0 0.0
2015-Jun-27 02:33N 53°21' E 008°30'0 0.0
2015-Jun-27 01:33N 53°21' E 008°30'0 0.0
2015-Jun-27 00:33N 53°21' E 008°30'0 0.0
2015-Jun-26 23:33N 53°21' E 008°30'0 0.0
2015-Jun-26 22:33N 53°21' E 008°30'0 0.0
2015-Jun-26 21:27N 53°21' E 008°30'0 0.0
2015-Jun-26 20:33N 53°21' E 008°30'0 0.0
2015-Jun-26 19:33N 53°21' E 008°30'0 0.0
2015-Jun-26 18:33N 53°21' E 008°30'0 0.0
2015-Jun-26 17:27N 53°21' E 008°30'0 0.0
2015-Jun-26 16:33N 53°21' E 008°30'0 0.0
2015-Jun-26 15:33N 53°21' E 008°30'0 0.0
2015-Jun-26 14:33N 53°21' E 008°30'0 0.0
2015-Jun-26 13:33N 53°21' E 008°30'0 0.0
2015-Jun-26 12:33N 53°21' E 008°30'0 0.0
2015-Jun-26 11:33N 53°21' E 008°30'0 0.0
2015-Jun-26 10:33N 53°21' E 008°30'0 0.0
2015-Jun-26 09:33N 53°21' E 008°30'0 0.0
2015-Jun-26 08:33N 53°21' E 008°30'0 0.0
2015-Jun-26 07:33N 53°21' E 008°30'0 0.0
2015-Jun-26 06:33N 53°21' E 008°30'0 0.0
2015-Jun-26 05:33N 53°21' E 008°30'0 0.0
2015-Jun-26 04:33N 53°21' E 008°30'0 0.0
2015-Jun-26 03:33N 53°21' E 008°30'0 0.0
2015-Jun-26 02:33N 53°21' E 008°30'0 0.0
2015-Jun-26 01:33N 53°21' E 008°30'0 0.0
2015-Jun-26 00:33N 53°21' E 008°30'0 0.0
2015-Jun-25 23:33N 53°21' E 008°30'0 0.0
2015-Jun-25 22:33N 53°21' E 008°30'0 0.0
2015-Jun-25 21:33N 53°21' E 008°30'0 0.0
2015-Jun-25 20:33N 53°21' E 008°30'0 0.0
2015-Jun-25 19:33N 53°21' E 008°30'0 0.0
2015-Jun-25 18:33N 53°21' E 008°30'0 0.0
2015-Jun-25 17:33N 53°21' E 008°30'0 0.0
2015-Jun-25 16:33N 53°21' E 008°30'0 0.0
2015-Jun-25 15:33N 53°21' E 008°30'0 0.0
2015-Jun-25 14:33N 53°21' E 008°30'0 0.0
2015-Jun-25 13:33N 53°21' E 008°30'0 0.0
2015-Jun-25 11:33N 53°21' E 008°30'0 0.3
2015-Jun-25 10:33N 53°21' E 008°30'1 0.9
2015-Jun-25 09:33N 53°20' E 008°30'0 0.0
2015-Jun-25 08:31N 53°20' E 008°30'0 0.0
2015-Jun-25 07:33N 53°20' E 008°30'0 0.0
2015-Jun-25 06:33N 53°20' E 008°30'0 0.0
2015-Jun-25 05:27N 53°20' E 008°30'0 0.0
2015-Jun-25 04:33N 53°20' E 008°30'0 0.0
2015-Jun-25 03:31N 53°20' E 008°30'0 0.0
2015-Jun-25 02:33N 53°20' E 008°30'0 0.0
2015-Jun-25 01:27N 53°20' E 008°30'0 0.0
2015-Jun-25 00:33N 53°20' E 008°30'0 0.0
2015-Jun-24 23:33N 53°20' E 008°30'0 0.0
2015-Jun-24 22:27N 53°20' E 008°30'0 0.0
2015-Jun-24 21:33N 53°20' E 008°30'0 0.0
2015-Jun-24 20:33N 53°20' E 008°30'0 0.0
2015-Jun-24 19:33N 53°20' E 008°30'0 0.0
2015-Jun-24 18:33N 53°20' E 008°30'  
Track history (hours):
 
Tides and Currents Weather Stations Pressure Air Temp Water Temp Dewpoint Dewpoint Depression Visibility Wind Speed Wind Dir Waves Ship Positions

Blue Bay

Last reported at 2015-Jul-04 18:27 UTC. Time now 2015-Jul-05 23:15 UTC.
Position N 43°25' W 002°43'.

Length 89 m; draft 4.8 m.

Type: Cargo ship. MMSI: 304519000.

Date/timePositionNaut miles runAvg speedWind from/ knotsBaromVisibWave heightAir tempDewpointWater temp
2015-Jul-04 18:27N 43°25' W 002°43'0 0.0
2015-Jul-04 17:12N 43°25' W 002°43'0 0.0
2015-Jul-04 16:33N 43°25' W 002°43'154 7.5
2015-Jul-03 20:07N 43°44' W 006°14'6 9.9
2015-Jul-03 19:33N 43°44' W 006°21'  
2015-Jun-30 19:06N 47°11' W 007°07'510.0
2015-Jun-30 18:33N 47°15' W 007°03'208 9.3
2015-Jun-29 20:05N 49°46' W 003°26'8 9.7
2015-Jun-29 19:12N 49°51' W 003°16'6 8.9
2015-Jun-29 18:33N 49°54' W 003°08'9 8.4
2015-Jun-29 17:29N 49°59' W 002°56'8 8.4
2015-Jun-29 16:33N 50°01' W 002°44'9 8.6
2015-Jun-29 15:33N 50°03' W 002°31'9 9.4
2015-Jun-29 14:33N 50°06' W 002°17'1110.7
2015-Jun-29 13:33N 50°09' W 002°01'1211.9
2015-Jun-29 12:33N 50°13' W 001°44'1312.4
2015-Jun-29 11:29N 50°17' W 001°24'1212.3
2015-Jun-29 10:30N 50°19' W 001°05'49 9.1
2015-Jun-29 05:06N 50°33' E 000°09'5 9.0
2015-Jun-29 04:33N 50°35' E 000°16'9 9.6
2015-Jun-29 03:33N 50°37' E 000°31'1010.4
2015-Jun-29 02:33N 50°43' E 000°45'1010.3
2015-Jun-29 01:33N 50°48' E 000°58'19 9.2
2015-Jun-28 23:27N 51°01' E 001°22'7 7.8
2015-Jun-28 22:33N 51°06' E 001°30'7 6.7
2015-Jun-28 21:33N 51°10' E 001°38'7 7.2
2015-Jun-28 20:33N 51°15' E 001°47'9 8.7
2015-Jun-28 19:34N 51°22' E 001°55'1010.1
2015-Jun-28 18:33N 51°30' E 002°05'1110.9
2015-Jun-28 17:33N 51°38' E 002°16'1111.0
2015-Jun-28 16:33N 51°47' E 002°27'2310.0
2015-Jun-28 14:14N 52°04' E 002°52'6 9.0
2015-Jun-28 13:33N 52°09' E 002°58'8 8.5
2015-Jun-28 12:33N 52°16' E 003°06'8 8.3
2015-Jun-28 11:33N 52°23' E 003°14'8 8.2
2015-Jun-28 10:32N 52°30' E 003°22'8 8.7
2015-Jun-28 09:34N 52°37' E 003°30'10 9.5
2015-Jun-28 08:33N 52°44' E 003°40'1010.0
2015-Jun-28 07:33N 52°51' E 003°52'1010.3
2015-Jun-28 06:33N 52°58' E 004°04'1010.2
2015-Jun-28 05:33N 53°06' E 004°16'10 9.6
2015-Jun-28 04:34N 53°12' E 004°27'9 9.2
2015-Jun-28 03:33N 53°21' E 004°33'8 8.5
2015-Jun-28 02:33N 53°28' E 004°40'9 8.6
2015-Jun-28 01:33N 53°31' E 004°53'9 8.8
2015-Jun-28 00:34N 53°34' E 005°07'10 9.6
2015-Jun-27 23:33N 53°38' E 005°22'1010.3
2015-Jun-27 22:34N 53°41' E 005°39'1110.5
2015-Jun-27 21:34N 53°44' E 005°56'1010.4
2015-Jun-27 20:33N 53°47' E 006°13'10 9.9
2015-Jun-27 19:33N 53°50' E 006°29'30 8.6
2015-Jun-27 16:03N 53°57' E 007°19'28 7.9
2015-Jun-27 12:33N 53°50' E 008°04'1110.8
2015-Jun-27 11:33N 53°43' E 008°18'1211.6
2015-Jun-27 10:33N 53°35' E 008°32'9 9.4
2015-Jun-27 09:33N 53°26' E 008°30'4 4.2
2015-Jun-27 08:33N 53°21' E 008°30'0 0.0
2015-Jun-27 07:33N 53°21' E 008°30'0 0.0
2015-Jun-27 06:33N 53°21' E 008°30'0 0.0
2015-Jun-27 05:30N 53°21' E 008°30'0 0.0
2015-Jun-27 04:33N 53°21' E 008°30'0 0.0
2015-Jun-27 03:33N 53°21' E 008°30'0 0.0
2015-Jun-27 02:33N 53°21' E 008°30'0 0.0
2015-Jun-27 01:33N 53°21' E 008°30'0 0.0
2015-Jun-27 00:33N 53°21' E 008°30'0 0.0
2015-Jun-26 23:33N 53°21' E 008°30'0 0.0
2015-Jun-26 22:33N 53°21' E 008°30'0 0.0
2015-Jun-26 21:27N 53°21' E 008°30'0 0.0
2015-Jun-26 20:33N 53°21' E 008°30'0 0.0
2015-Jun-26 19:33N 53°21' E 008°30'0 0.0
2015-Jun-26 18:33N 53°21' E 008°30'0 0.0
2015-Jun-26 17:27N 53°21' E 008°30'0 0.0
2015-Jun-26 16:33N 53°21' E 008°30'0 0.0
2015-Jun-26 15:33N 53°21' E 008°30'0 0.0
2015-Jun-26 14:33N 53°21' E 008°30'0 0.0
2015-Jun-26 13:33N 53°21' E 008°30'0 0.0
2015-Jun-26 12:33N 53°21' E 008°30'0 0.0
2015-Jun-26 11:33N 53°21' E 008°30'0 0.0
2015-Jun-26 10:33N 53°21' E 008°30'0 0.0
2015-Jun-26 09:33N 53°21' E 008°30'0 0.0
2015-Jun-26 08:33N 53°21' E 008°30'0 0.0
2015-Jun-26 07:33N 53°21' E 008°30'0 0.0
2015-Jun-26 06:33N 53°21' E 008°30'0 0.0
2015-Jun-26 05:33N 53°21' E 008°30'0 0.0
2015-Jun-26 04:33N 53°21' E 008°30'0 0.0
2015-Jun-26 03:33N 53°21' E 008°30'0 0.0
2015-Jun-26 02:33N 53°21' E 008°30'0 0.0
2015-Jun-26 01:33N 53°21' E 008°30'0 0.0
2015-Jun-26 00:33N 53°21' E 008°30'0 0.0
2015-Jun-25 23:33N 53°21' E 008°30'0 0.0
2015-Jun-25 22:33N 53°21' E 008°30'0 0.0
2015-Jun-25 21:33N 53°21' E 008°30'0 0.0
2015-Jun-25 20:33N 53°21' E 008°30'0 0.0
2015-Jun-25 19:33N 53°21' E 008°30'0 0.0
2015-Jun-25 18:33N 53°21' E 008°30'0 0.0
2015-Jun-25 17:33N 53°21' E 008°30'0 0.0
2015-Jun-25 16:33N 53°21' E 008°30'0 0.0
2015-Jun-25 15:33N 53°21' E 008°30'0 0.0
2015-Jun-25 14:33N 53°21' E 008°30'0 0.0
2015-Jun-25 13:33N 53°21' E 008°30'0 0.0
2015-Jun-25 11:33N 53°21' E 008°30'0 0.3
2015-Jun-25 10:33N 53°21' E 008°30'1 0.9
2015-Jun-25 09:33N 53°20' E 008°30'0 0.0
2015-Jun-25 08:31N 53°20' E 008°30'0 0.0
2015-Jun-25 07:33N 53°20' E 008°30'0 0.0
2015-Jun-25 06:33N 53°20' E 008°30'0 0.0
2015-Jun-25 05:27N 53°20' E 008°30'0 0.0
2015-Jun-25 04:33N 53°20' E 008°30'0 0.0
2015-Jun-25 03:31N 53°20' E 008°30'0 0.0
2015-Jun-25 02:33N 53°20' E 008°30'0 0.0
2015-Jun-25 01:27N 53°20' E 008°30'0 0.0
2015-Jun-25 00:33N 53°20' E 008°30'0 0.0
2015-Jun-24 23:33N 53°20' E 008°30'0 0.0
2015-Jun-24 22:27N 53°20' E 008°30'0 0.0
2015-Jun-24 21:33N 53°20' E 008°30'0 0.0
2015-Jun-24 20:33N 53°20' E 008°30'0 0.0
2015-Jun-24 19:33N 53°20' E 008°30'0 0.0
2015-Jun-24 18:33N 53°20' E 008°30'  

Dump ship's entire track history